sensor_id;sensor_type;location;lat;lon;timestamp;P1;durP1;ratioP1;P2;durP2;ratioP2
53674;SDS011;39574;50.534;8.500;2022-08-19T00:03:44;17.7;;;13.3;;
53674;SDS011;39574;50.534;8.500;2022-08-19T00:08:44;18.8;;;14.4;;
53674;SDS011;39574;50.534;8.500;2022-08-19T00:13:43;19.5;;;14.7;;
53674;SDS011;39574;50.534;8.500;2022-08-19T00:18:43;18.8;;;14.4;;
53674;SDS011;39574;50.534;8.500;2022-08-19T00:23:42;18.9;;;14.5;;
53674;SDS011;39574;50.534;8.500;2022-08-19T00:28:42;18.3;;;14.4;;
53674;SDS011;39574;50.534;8.500;2022-08-19T00:33:42;19.1;;;14.6;;
53674;SDS011;39574;50.534;8.500;2022-08-19T00:38:41;18.9;;;14.4;;
53674;SDS011;39574;50.534;8.500;2022-08-19T00:43:41;18.2;;;13.9;;
53674;SDS011;39574;50.534;8.500;2022-08-19T00:48:41;16.9;;;13.2;;
53674;SDS011;39574;50.534;8.500;2022-08-19T00:53:40;15.7;;;12.7;;
53674;SDS011;39574;50.534;8.500;2022-08-19T00:58:40;16.5;;;13.2;;
53674;SDS011;39574;50.534;8.500;2022-08-19T01:03:40;16.8;;;13.3;;
53674;SDS011;39574;50.534;8.500;2022-08-19T01:08:39;17.2;;;13.1;;
53674;SDS011;39574;50.534;8.500;2022-08-19T01:13:39;17.7;;;13.3;;
53674;SDS011;39574;50.534;8.500;2022-08-19T01:18:39;18.2;;;13.6;;
53674;SDS011;39574;50.534;8.500;2022-08-19T01:23:38;18.3;;;13.7;;
53674;SDS011;39574;50.534;8.500;2022-08-19T01:28:37;17.6;;;13.5;;
53674;SDS011;39574;50.534;8.500;2022-08-19T01:33:37;17.1;;;13.4;;
53674;SDS011;39574;50.534;8.500;2022-08-19T01:38:37;16.5;;;13.3;;
53674;SDS011;39574;50.534;8.500;2022-08-19T01:43:36;17.2;;;13.7;;
53674;SDS011;39574;50.534;8.500;2022-08-19T01:48:37;17.0;;;13.7;;
53674;SDS011;39574;50.534;8.500;2022-08-19T01:53:36;17.6;;;13.8;;
53674;SDS011;39574;50.534;8.500;2022-08-19T01:58:36;17.9;;;13.5;;
53674;SDS011;39574;50.534;8.500;2022-08-19T02:03:34;17.2;;;13.3;;
53674;SDS011;39574;50.534;8.500;2022-08-19T02:08:36;16.9;;;13.2;;
53674;SDS011;39574;50.534;8.500;2022-08-19T02:13:34;16.3;;;13.2;;
53674;SDS011;39574;50.534;8.500;2022-08-19T02:18:33;16.6;;;13.4;;
53674;SDS011;39574;50.534;8.500;2022-08-19T02:23:33;17.4;;;13.8;;
53674;SDS011;39574;50.534;8.500;2022-08-19T02:28:32;17.6;;;13.5;;
53674;SDS011;39574;50.534;8.500;2022-08-19T02:33:32;17.4;;;13.4;;
53674;SDS011;39574;50.534;8.500;2022-08-19T02:38:31;16.7;;;13.2;;
53674;SDS011;39574;50.534;8.500;2022-08-19T02:43:31;16.3;;;13.2;;
53674;SDS011;39574;50.534;8.500;2022-08-19T02:48:30;16.9;;;13.7;;
53674;SDS011;39574;50.534;8.500;2022-08-19T02:53:30;17.0;;;13.6;;
53674;SDS011;39574;50.534;8.500;2022-08-19T02:58:29;17.0;;;13.4;;
53674;SDS011;39574;50.534;8.500;2022-08-19T03:03:29;16.6;;;13.3;;
53674;SDS011;39574;50.534;8.500;2022-08-19T03:08:28;17.4;;;13.5;;
53674;SDS011;39574;50.534;8.500;2022-08-19T03:13:28;18.8;;;13.9;;
53674;SDS011;39574;50.534;8.500;2022-08-19T03:18:28;18.7;;;14.1;;
53674;SDS011;39574;50.534;8.500;2022-08-19T03:23:27;18.6;;;13.8;;
53674;SDS011;39574;50.534;8.500;2022-08-19T03:28:27;17.5;;;13.6;;
53674;SDS011;39574;50.534;8.500;2022-08-19T03:33:26;17.0;;;13.6;;
53674;SDS011;39574;50.534;8.500;2022-08-19T03:38:26;16.9;;;13.7;;
53674;SDS011;39574;50.534;8.500;2022-08-19T03:43:25;16.9;;;13.6;;
53674;SDS011;39574;50.534;8.500;2022-08-19T03:48:25;17.7;;;13.9;;
53674;SDS011;39574;50.534;8.500;2022-08-19T03:53:24;18.2;;;13.7;;
53674;SDS011;39574;50.534;8.500;2022-08-19T03:58:24;18.5;;;13.4;;
53674;SDS011;39574;50.534;8.500;2022-08-19T04:03:23;17.7;;;13.1;;
53674;SDS011;39574;50.534;8.500;2022-08-19T04:08:23;16.9;;;12.9;;
53674;SDS011;39574;50.534;8.500;2022-08-19T04:13:22;16.9;;;13.0;;
53674;SDS011;39574;50.534;8.500;2022-08-19T04:18:22;16.5;;;12.9;;
53674;SDS011;39574;50.534;8.500;2022-08-19T04:23:22;17.2;;;13.6;;
53674;SDS011;39574;50.534;8.500;2022-08-19T04:28:21;17.2;;;13.6;;
53674;SDS011;39574;50.534;8.500;2022-08-19T04:33:21;17.1;;;13.4;;
53674;SDS011;39574;50.534;8.500;2022-08-19T04:38:21;17.3;;;13.5;;
53674;SDS011;39574;50.534;8.500;2022-08-19T04:43:19;17.9;;;13.9;;
53674;SDS011;39574;50.534;8.500;2022-08-19T04:48:19;17.6;;;13.7;;
53674;SDS011;39574;50.534;8.500;2022-08-19T04:53:18;18.6;;;13.9;;
53674;SDS011;39574;50.534;8.500;2022-08-19T04:58:18;18.4;;;13.7;;
53674;SDS011;39574;50.534;8.500;2022-08-19T05:03:17;17.1;;;12.9;;
53674;SDS011;39574;50.534;8.500;2022-08-19T05:08:18;16.8;;;12.7;;
53674;SDS011;39574;50.534;8.500;2022-08-19T05:13:17;17.3;;;12.4;;
53674;SDS011;39574;50.534;8.500;2022-08-19T05:18:16;16.9;;;12.5;;
53674;SDS011;39574;50.534;8.500;2022-08-19T05:23:15;17.3;;;13.0;;
53674;SDS011;39574;50.534;8.500;2022-08-19T05:28:15;17.7;;;13.0;;
53674;SDS011;39574;50.534;8.500;2022-08-19T05:33:14;17.5;;;12.9;;
53674;SDS011;39574;50.534;8.500;2022-08-19T05:38:14;18.5;;;13.4;;
53674;SDS011;39574;50.534;8.500;2022-08-19T05:43:13;18.6;;;13.2;;
53674;SDS011;39574;50.534;8.500;2022-08-19T05:48:13;19.6;;;13.2;;
53674;SDS011;39574;50.534;8.500;2022-08-19T05:53:12;18.3;;;12.6;;
53674;SDS011;39574;50.534;8.500;2022-08-19T05:58:12;18.2;;;12.7;;
53674;SDS011;39574;50.534;8.500;2022-08-19T06:03:11;17.0;;;12.1;;
53674;SDS011;39574;50.534;8.500;2022-08-19T06:08:11;16.4;;;12.0;;
53674;SDS011;39574;50.534;8.500;2022-08-19T06:13:11;15.1;;;11.4;;
53674;SDS011;39574;50.534;8.500;2022-08-19T06:18:10;14.7;;;11.1;;
53674;SDS011;39574;50.534;8.500;2022-08-19T06:23:10;14.1;;;10.9;;
53674;SDS011;39574;50.534;8.500;2022-08-19T06:28:09;13.9;;;10.7;;
53674;SDS011;39574;50.534;8.500;2022-08-19T06:33:09;13.7;;;10.4;;
53674;SDS011;39574;50.534;8.500;2022-08-19T06:38:08;13.6;;;10.4;;
53674;SDS011;39574;50.534;8.500;2022-08-19T06:43:08;14.2;;;10.8;;
53674;SDS011;39574;50.534;8.500;2022-08-19T06:48:08;13.7;;;10.3;;
53674;SDS011;39574;50.534;8.500;2022-08-19T06:53:07;13.6;;;10.5;;
53674;SDS011;39574;50.534;8.500;2022-08-19T06:58:07;13.3;;;10.2;;
53674;SDS011;39574;50.534;8.500;2022-08-19T07:03:06;13.3;;;9.9;;
53674;SDS011;39574;50.534;8.500;2022-08-19T07:08:06;13.0;;;9.7;;
53674;SDS011;39574;50.534;8.500;2022-08-19T07:13:06;12.6;;;9.5;;
53674;SDS011;39574;50.534;8.500;2022-08-19T07:18:05;11.7;;;8.9;;
53674;SDS011;39574;50.534;8.500;2022-08-19T07:23:05;11.1;;;8.3;;
53674;SDS011;39574;50.534;8.500;2022-08-19T07:28:05;10.6;;;8.2;;
53674;SDS011;39574;50.534;8.500;2022-08-19T07:33:05;10.9;;;8.3;;
53674;SDS011;39574;50.534;8.500;2022-08-19T07:38:04;10.6;;;8.1;;
53674;SDS011;39574;50.534;8.500;2022-08-19T07:43:03;10.7;;;8.2;;
53674;SDS011;39574;50.534;8.500;2022-08-19T07:48:03;10.0;;;7.9;;
53674;SDS011;39574;50.534;8.500;2022-08-19T07:53:03;10.1;;;8.0;;
53674;SDS011;39574;50.534;8.500;2022-08-19T07:58:02;10.1;;;7.9;;
53674;SDS011;39574;50.534;8.500;2022-08-19T08:03:02;9.6;;;7.7;;
53674;SDS011;39574;50.534;8.500;2022-08-19T08:08:02;9.1;;;7.2;;
53674;SDS011;39574;50.534;8.500;2022-08-19T08:13:02;9.8;;;7.6;;
53674;SDS011;39574;50.534;8.500;2022-08-19T08:18:01;10.4;;;7.8;;
53674;SDS011;39574;50.534;8.500;2022-08-19T08:23:01;9.8;;;7.7;;
53674;SDS011;39574;50.534;8.500;2022-08-19T08:28:01;9.4;;;7.0;;
53674;SDS011;39574;50.534;8.500;2022-08-19T08:33:00;8.8;;;6.5;;
53674;SDS011;39574;50.534;8.500;2022-08-19T08:38:00;9.0;;;6.2;;
53674;SDS011;39574;50.534;8.500;2022-08-19T08:43:01;8.4;;;5.9;;
53674;SDS011;39574;50.534;8.500;2022-08-19T08:48:00;8.2;;;6.2;;
53674;SDS011;39574;50.534;8.500;2022-08-19T08:52:59;8.2;;;6.4;;
53674;SDS011;39574;50.534;8.500;2022-08-19T08:58:00;9.3;;;7.0;;
53674;SDS011;39574;50.534;8.500;2022-08-19T09:02:59;9.0;;;6.8;;
53674;SDS011;39574;50.534;8.500;2022-08-19T09:07:59;9.2;;;6.9;;
53674;SDS011;39574;50.534;8.500;2022-08-19T09:13:00;8.4;;;6.5;;
53674;SDS011;39574;50.534;8.500;2022-08-19T09:17:59;7.6;;;6.3;;
53674;SDS011;39574;50.534;8.500;2022-08-19T09:22:58;7.8;;;6.4;;
53674;SDS011;39574;50.534;8.500;2022-08-19T09:27:57;7.0;;;6.0;;
53674;SDS011;39574;50.534;8.500;2022-08-19T09:32:57;7.4;;;6.1;;
53674;SDS011;39574;50.534;8.500;2022-08-19T09:37:57;7.3;;;6.0;;
53674;SDS011;39574;50.534;8.500;2022-08-19T09:42:56;7.6;;;5.9;;
53674;SDS011;39574;50.534;8.500;2022-08-19T09:47:56;9.5;;;6.2;;
53674;SDS011;39574;50.534;8.500;2022-08-19T09:52:56;10.0;;;6.5;;
53674;SDS011;39574;50.534;8.500;2022-08-19T09:57:56;9.7;;;6.6;;
53674;SDS011;39574;50.534;8.500;2022-08-19T10:02:55;8.6;;;6.6;;
53674;SDS011;39574;50.534;8.500;2022-08-19T10:07:55;8.8;;;7.2;;
53674;SDS011;39574;50.534;8.500;2022-08-19T10:12:55;8.4;;;7.1;;
53674;SDS011;39574;50.534;8.500;2022-08-19T10:17:55;8.4;;;7.3;;
53674;SDS011;39574;50.534;8.500;2022-08-19T10:22:55;8.3;;;7.3;;
53674;SDS011;39574;50.534;8.500;2022-08-19T10:27:55;9.4;;;8.4;;
53674;SDS011;39574;50.534;8.500;2022-08-19T10:32:54;10.5;;;9.4;;
53674;SDS011;39574;50.534;8.500;2022-08-19T10:37:54;10.4;;;9.3;;
53674;SDS011;39574;50.534;8.500;2022-08-19T10:42:54;9.7;;;8.6;;
53674;SDS011;39574;50.534;8.500;2022-08-19T10:47:54;8.9;;;8.0;;
53674;SDS011;39574;50.534;8.500;2022-08-19T10:57:54;9.6;;;8.6;;
53674;SDS011;39574;50.534;8.500;2022-08-19T11:02:54;9.6;;;8.6;;
53674;SDS011;39574;50.534;8.500;2022-08-19T11:07:53;9.6;;;8.6;;
53674;SDS011;39574;50.534;8.500;2022-08-19T11:12:53;10.0;;;9.0;;
53674;SDS011;39574;50.534;8.500;2022-08-19T11:17:53;10.3;;;9.1;;
53674;SDS011;39574;50.534;8.500;2022-08-19T11:22:53;9.8;;;8.7;;
53674;SDS011;39574;50.534;8.500;2022-08-19T11:27:53;8.9;;;7.9;;
53674;SDS011;39574;50.534;8.500;2022-08-19T11:32:53;8.4;;;7.5;;
53674;SDS011;39574;50.534;8.500;2022-08-19T11:37:53;8.5;;;7.4;;
53674;SDS011;39574;50.534;8.500;2022-08-19T11:42:53;8.4;;;7.5;;
53674;SDS011;39574;50.534;8.500;2022-08-19T11:47:52;8.6;;;7.6;;
53674;SDS011;39574;50.534;8.500;2022-08-19T11:52:53;8.8;;;7.9;;
53674;SDS011;39574;50.534;8.500;2022-08-19T11:57:52;9.3;;;8.0;;
53674;SDS011;39574;50.534;8.500;2022-08-19T12:02:52;9.6;;;8.3;;
53674;SDS011;39574;50.534;8.500;2022-08-19T12:07:52;9.2;;;8.1;;
53674;SDS011;39574;50.534;8.500;2022-08-19T12:12:52;8.8;;;7.8;;
53674;SDS011;39574;50.534;8.500;2022-08-19T12:17:52;8.2;;;7.3;;
53674;SDS011;39574;50.534;8.500;2022-08-19T12:22:52;7.8;;;7.0;;
53674;SDS011;39574;50.534;8.500;2022-08-19T12:27:52;8.0;;;6.8;;
53674;SDS011;39574;50.534;8.500;2022-08-19T12:32:52;7.8;;;6.8;;
53674;SDS011;39574;50.534;8.500;2022-08-19T12:42:52;7.1;;;6.3;;
53674;SDS011;39574;50.534;8.500;2022-08-19T12:47:52;7.2;;;6.1;;
53674;SDS011;39574;50.534;8.500;2022-08-19T12:52:52;7.1;;;5.8;;
53674;SDS011;39574;50.534;8.500;2022-08-19T12:57:52;7.2;;;5.3;;
53674;SDS011;39574;50.534;8.500;2022-08-19T13:02:52;6.5;;;5.0;;
53674;SDS011;39574;50.534;8.500;2022-08-19T13:07:52;5.5;;;4.4;;
53674;SDS011;39574;50.534;8.500;2022-08-19T13:12:52;4.9;;;4.0;;
53674;SDS011;39574;50.534;8.500;2022-08-19T13:17:52;4.7;;;3.9;;
53674;SDS011;39574;50.534;8.500;2022-08-19T13:22:52;4.7;;;3.8;;
53674;SDS011;39574;50.534;8.500;2022-08-19T13:27:52;5.2;;;3.9;;
53674;SDS011;39574;50.534;8.500;2022-08-19T13:32:52;5.8;;;4.1;;
53674;SDS011;39574;50.534;8.500;2022-08-19T13:37:52;6.0;;;4.2;;
53674;SDS011;39574;50.534;8.500;2022-08-19T13:42:52;7.4;;;4.3;;
53674;SDS011;39574;50.534;8.500;2022-08-19T13:47:52;6.7;;;4.5;;
53674;SDS011;39574;50.534;8.500;2022-08-19T13:52:52;6.1;;;4.6;;
53674;SDS011;39574;50.534;8.500;2022-08-19T13:57:52;5.5;;;4.5;;
53674;SDS011;39574;50.534;8.500;2022-08-19T14:02:52;5.2;;;4.5;;
53674;SDS011;39574;50.534;8.500;2022-08-19T14:07:51;6.2;;;4.5;;
53674;SDS011;39574;50.534;8.500;2022-08-19T14:12:52;6.8;;;4.6;;
53674;SDS011;39574;50.534;8.500;2022-08-19T14:17:51;6.3;;;4.5;;
53674;SDS011;39574;50.534;8.500;2022-08-19T14:22:51;6.0;;;4.5;;
53674;SDS011;39574;50.534;8.500;2022-08-19T14:27:51;5.9;;;4.4;;
53674;SDS011;39574;50.534;8.500;2022-08-19T14:32:51;5.5;;;4.5;;
53674;SDS011;39574;50.534;8.500;2022-08-19T14:37:51;5.5;;;4.5;;
53674;SDS011;39574;50.534;8.500;2022-08-19T14:42:51;5.9;;;4.5;;
53674;SDS011;39574;50.534;8.500;2022-08-19T14:47:51;5.7;;;4.6;;
53674;SDS011;39574;50.534;8.500;2022-08-19T14:52:57;5.4;;;4.5;;
53674;SDS011;39574;50.534;8.500;2022-08-19T14:57:50;5.1;;;4.4;;
53674;SDS011;39574;50.534;8.500;2022-08-19T15:02:50;4.8;;;4.3;;
53674;SDS011;39574;50.534;8.500;2022-08-19T15:07:50;5.3;;;4.2;;
53674;SDS011;39574;50.534;8.500;2022-08-19T15:12:50;5.4;;;4.3;;
53674;SDS011;39574;50.534;8.500;2022-08-19T15:17:50;5.8;;;4.3;;
53674;SDS011;39574;50.534;8.500;2022-08-19T15:22:50;6.4;;;4.4;;
53674;SDS011;39574;50.534;8.500;2022-08-19T15:27:50;5.8;;;4.3;;
53674;SDS011;39574;50.534;8.500;2022-08-19T15:32:50;5.5;;;4.2;;
53674;SDS011;39574;50.534;8.500;2022-08-19T15:37:50;5.0;;;4.0;;
53674;SDS011;39574;50.534;8.500;2022-08-19T15:42:50;5.2;;;3.9;;
53674;SDS011;39574;50.534;8.500;2022-08-19T15:47:50;4.8;;;3.8;;
53674;SDS011;39574;50.534;8.500;2022-08-19T15:52:51;4.7;;;3.9;;
53674;SDS011;39574;50.534;8.500;2022-08-19T15:57:50;4.5;;;3.9;;
53674;SDS011;39574;50.534;8.500;2022-08-19T16:02:50;5.3;;;4.1;;
53674;SDS011;39574;50.534;8.500;2022-08-19T16:07:50;5.5;;;4.4;;
53674;SDS011;39574;50.534;8.500;2022-08-19T16:12:50;5.6;;;4.6;;
53674;SDS011;39574;50.534;8.500;2022-08-19T16:17:50;5.5;;;4.7;;
53674;SDS011;39574;50.534;8.500;2022-08-19T16:22:50;5.5;;;4.8;;
53674;SDS011;39574;50.534;8.500;2022-08-19T16:27:50;5.4;;;4.9;;
53674;SDS011;39574;50.534;8.500;2022-08-19T16:32:50;5.3;;;4.7;;
53674;SDS011;39574;50.534;8.500;2022-08-19T16:37:50;5.2;;;4.6;;
53674;SDS011;39574;50.534;8.500;2022-08-19T16:42:50;5.2;;;4.6;;
53674;SDS011;39574;50.534;8.500;2022-08-19T16:47:50;5.3;;;4.7;;
53674;SDS011;39574;50.534;8.500;2022-08-19T16:52:50;5.7;;;5.0;;
53674;SDS011;39574;50.534;8.500;2022-08-19T16:57:50;6.0;;;5.1;;
53674;SDS011;39574;50.534;8.500;2022-08-19T17:02:49;6.0;;;5.1;;
53674;SDS011;39574;50.534;8.500;2022-08-19T17:07:49;5.8;;;5.0;;
53674;SDS011;39574;50.534;8.500;2022-08-19T17:12:49;5.8;;;4.8;;
53674;SDS011;39574;50.534;8.500;2022-08-19T17:17:49;6.1;;;4.9;;
53674;SDS011;39574;50.534;8.500;2022-08-19T17:22:49;5.8;;;4.8;;
53674;SDS011;39574;50.534;8.500;2022-08-19T17:27:49;5.7;;;4.9;;
53674;SDS011;39574;50.534;8.500;2022-08-19T17:32:49;5.7;;;5.0;;
53674;SDS011;39574;50.534;8.500;2022-08-19T17:37:49;6.8;;;5.4;;
53674;SDS011;39574;50.534;8.500;2022-08-19T17:42:49;7.2;;;5.7;;
53674;SDS011;39574;50.534;8.500;2022-08-19T17:47:49;7.6;;;5.9;;
53674;SDS011;39574;50.534;8.500;2022-08-19T17:52:48;7.7;;;5.9;;
53674;SDS011;39574;50.534;8.500;2022-08-19T17:57:48;12.6;;;11.0;;
53674;SDS011;39574;50.534;8.500;2022-08-19T18:02:49;18.9;;;17.1;;
53674;SDS011;39574;50.534;8.500;2022-08-19T18:07:48;22.6;;;20.9;;
53674;SDS011;39574;50.534;8.500;2022-08-19T18:12:48;18.2;;;16.9;;
53674;SDS011;39574;50.534;8.500;2022-08-19T18:17:48;13.1;;;11.7;;
53674;SDS011;39574;50.534;8.500;2022-08-19T18:22:48;9.3;;;7.7;;
53674;SDS011;39574;50.534;8.500;2022-08-19T18:27:48;8.6;;;5.8;;
53674;SDS011;39574;50.534;8.500;2022-08-19T18:32:47;8.8;;;5.9;;
53674;SDS011;39574;50.534;8.500;2022-08-19T18:37:47;8.1;;;5.9;;
53674;SDS011;39574;50.534;8.500;2022-08-19T18:42:46;8.0;;;6.0;;
53674;SDS011;39574;50.534;8.500;2022-08-19T18:47:46;7.5;;;5.9;;
53674;SDS011;39574;50.534;8.500;2022-08-19T18:52:46;7.6;;;6.0;;
53674;SDS011;39574;50.534;8.500;2022-08-19T18:57:46;8.4;;;5.9;;
53674;SDS011;39574;50.534;8.500;2022-08-19T19:02:45;8.6;;;5.9;;
53674;SDS011;39574;50.534;8.500;2022-08-19T19:07:45;8.9;;;6.0;;
53674;SDS011;39574;50.534;8.500;2022-08-19T19:12:45;9.0;;;6.2;;
53674;SDS011;39574;50.534;8.500;2022-08-19T19:17:45;8.1;;;6.2;;
53674;SDS011;39574;50.534;8.500;2022-08-19T19:22:44;8.0;;;6.2;;
53674;SDS011;39574;50.534;8.500;2022-08-19T19:27:44;7.6;;;6.1;;
53674;SDS011;39574;50.534;8.500;2022-08-19T19:32:44;7.3;;;6.1;;
53674;SDS011;39574;50.534;8.500;2022-08-19T19:37:44;7.8;;;6.1;;
53674;SDS011;39574;50.534;8.500;2022-08-19T19:42:43;8.4;;;6.3;;
53674;SDS011;39574;50.534;8.500;2022-08-19T19:47:43;8.4;;;6.4;;
53674;SDS011;39574;50.534;8.500;2022-08-19T19:52:43;7.8;;;6.3;;
53674;SDS011;39574;50.534;8.500;2022-08-19T19:57:43;7.8;;;6.2;;
53674;SDS011;39574;50.534;8.500;2022-08-19T20:02:42;7.8;;;6.1;;
53674;SDS011;39574;50.534;8.500;2022-08-19T20:07:42;7.2;;;5.9;;
53674;SDS011;39574;50.534;8.500;2022-08-19T20:12:42;7.4;;;5.7;;
53674;SDS011;39574;50.534;8.500;2022-08-19T20:17:41;7.3;;;5.7;;
53674;SDS011;39574;50.534;8.500;2022-08-19T20:22:41;7.5;;;5.5;;
53674;SDS011;39574;50.534;8.500;2022-08-19T20:27:41;7.4;;;5.3;;
53674;SDS011;39574;50.534;8.500;2022-08-19T20:32:40;7.0;;;5.3;;
53674;SDS011;39574;50.534;8.500;2022-08-19T20:37:40;7.5;;;5.3;;
53674;SDS011;39574;50.534;8.500;2022-08-19T20:42:40;7.7;;;5.3;;
53674;SDS011;39574;50.534;8.500;2022-08-19T20:47:39;7.4;;;5.4;;
53674;SDS011;39574;50.534;8.500;2022-08-19T20:52:39;7.0;;;5.3;;
53674;SDS011;39574;50.534;8.500;2022-08-19T20:57:39;7.1;;;5.3;;
53674;SDS011;39574;50.534;8.500;2022-08-19T21:02:38;7.0;;;5.3;;
53674;SDS011;39574;50.534;8.500;2022-08-19T21:07:38;6.9;;;5.3;;
53674;SDS011;39574;50.534;8.500;2022-08-19T21:12:38;7.2;;;5.3;;
53674;SDS011;39574;50.534;8.500;2022-08-19T21:17:38;6.8;;;5.3;;
53674;SDS011;39574;50.534;8.500;2022-08-19T21:22:37;7.4;;;5.7;;
53674;SDS011;39574;50.534;8.500;2022-08-19T21:27:37;7.5;;;5.9;;
53674;SDS011;39574;50.534;8.500;2022-08-19T21:32:36;7.5;;;6.0;;
53674;SDS011;39574;50.534;8.500;2022-08-19T21:37:36;7.8;;;6.0;;
53674;SDS011;39574;50.534;8.500;2022-08-19T21:42:36;7.6;;;5.9;;
53674;SDS011;39574;50.534;8.500;2022-08-19T21:47:35;7.9;;;6.0;;
53674;SDS011;39574;50.534;8.500;2022-08-19T21:52:35;8.2;;;6.0;;
53674;SDS011;39574;50.534;8.500;2022-08-19T21:57:34;8.0;;;6.1;;
53674;SDS011;39574;50.534;8.500;2022-08-19T22:02:35;8.0;;;6.0;;
53674;SDS011;39574;50.534;8.500;2022-08-19T22:07:34;8.1;;;6.0;;
53674;SDS011;39574;50.534;8.500;2022-08-19T22:12:35;7.8;;;6.0;;
53674;SDS011;39574;50.534;8.500;2022-08-19T22:17:33;7.9;;;6.1;;
53674;SDS011;39574;50.534;8.500;2022-08-19T22:22:33;7.9;;;6.3;;
53674;SDS011;39574;50.534;8.500;2022-08-19T22:27:32;8.5;;;6.6;;
53674;SDS011;39574;50.534;8.500;2022-08-19T22:32:32;9.1;;;6.6;;
53674;SDS011;39574;50.534;8.500;2022-08-19T22:37:31;9.2;;;6.4;;
53674;SDS011;39574;50.534;8.500;2022-08-19T22:42:31;8.6;;;5.7;;
53674;SDS011;39574;50.534;8.500;2022-08-19T22:47:30;6.9;;;4.8;;
53674;SDS011;39574;50.534;8.500;2022-08-19T22:52:30;6.5;;;4.5;;
53674;SDS011;39574;50.534;8.500;2022-08-19T22:57:30;6.7;;;5.0;;
53674;SDS011;39574;50.534;8.500;2022-08-19T23:02:30;7.3;;;5.4;;
53674;SDS011;39574;50.534;8.500;2022-08-19T23:07:29;7.3;;;5.7;;
53674;SDS011;39574;50.534;8.500;2022-08-19T23:12:29;7.5;;;6.0;;
53674;SDS011;39574;50.534;8.500;2022-08-19T23:17:28;7.4;;;5.9;;
53674;SDS011;39574;50.534;8.500;2022-08-19T23:22:27;7.9;;;6.1;;
53674;SDS011;39574;50.534;8.500;2022-08-19T23:27:27;7.8;;;6.1;;
53674;SDS011;39574;50.534;8.500;2022-08-19T23:32:26;8.1;;;6.2;;
53674;SDS011;39574;50.534;8.500;2022-08-19T23:37:26;8.0;;;6.0;;
53674;SDS011;39574;50.534;8.500;2022-08-19T23:42:25;8.4;;;6.1;;
53674;SDS011;39574;50.534;8.500;2022-08-19T23:47:25;9.0;;;6.2;;
53674;SDS011;39574;50.534;8.500;2022-08-19T23:52:25;9.4;;;6.5;;
53674;SDS011;39574;50.534;8.500;2022-08-19T23:57:24;9.5;;;6.7;;
